sensor_id;sensor_type;location;lat;lon;timestamp;pressure;altitude;pressure_sealevel;temperature;humidity
19795;BME280;10057;59.402;17.866;2023-04-24T00:01:02;100025.50;;;6.33;75.12
19795;BME280;10057;59.402;17.866;2023-04-24T00:03:28;100022.03;;;6.31;75.35
19795;BME280;10057;59.402;17.866;2023-04-24T00:05:55;100037.03;;;6.29;75.47
19795;BME280;10057;59.402;17.866;2023-04-24T00:08:22;100044.19;;;6.26;75.26
19795;BME280;10057;59.402;17.866;2023-04-24T00:10:50;100036.41;;;6.21;75.96
19795;BME280;10057;59.402;17.866;2023-04-24T00:13:18;100042.59;;;6.18;75.68
19795;BME280;10057;59.402;17.866;2023-04-24T00:15:45;100047.88;;;6.18;76.18
19795;BME280;10057;59.402;17.866;2023-04-24T00:18:12;100041.84;;;6.15;76.12
19795;BME280;10057;59.402;17.866;2023-04-24T00:20:38;100048.16;;;6.09;76.39
19795;BME280;10057;59.402;17.866;2023-04-24T00:23:06;100051.81;;;6.05;76.20
19795;BME280;10057;59.402;17.866;2023-04-24T00:25:33;100051.06;;;6.00;75.86
19795;BME280;10057;59.402;17.866;2023-04-24T00:27:59;100055.50;;;5.98;76.41
19795;BME280;10057;59.402;17.866;2023-04-24T00:30:26;100054.81;;;5.91;76.26
19795;BME280;10057;59.402;17.866;2023-04-24T00:32:53;100060.19;;;5.87;76.33
19795;BME280;10057;59.402;17.866;2023-04-24T00:35:20;100073.44;;;5.84;76.78
19795;BME280;10057;59.402;17.866;2023-04-24T00:37:46;100068.25;;;5.81;76.71
19795;BME280;10057;59.402;17.866;2023-04-24T00:40:13;100068.47;;;5.75;77.25
19795;BME280;10057;59.402;17.866;2023-04-24T00:42:40;100059.81;;;5.69;77.40
19795;BME280;10057;59.402;17.866;2023-04-24T00:45:07;100064.28;;;5.66;77.48
19795;BME280;10057;59.402;17.866;2023-04-24T00:47:34;100066.06;;;5.65;77.88
19795;BME280;10057;59.402;17.866;2023-04-24T00:50:05;100065.22;;;5.65;77.41
19795;BME280;10057;59.402;17.866;2023-04-24T00:52:32;100066.88;;;5.67;77.24
19795;BME280;10057;59.402;17.866;2023-04-24T00:54:59;100066.78;;;5.70;77.66
19795;BME280;10057;59.402;17.866;2023-04-24T00:57:26;100078.88;;;5.78;77.46
19795;BME280;10057;59.402;17.866;2023-04-24T00:59:53;100068.09;;;5.87;76.96
19795;BME280;10057;59.402;17.866;2023-04-24T01:02:21;100078.47;;;5.93;77.19
19795;BME280;10057;59.402;17.866;2023-04-24T01:04:50;100073.25;;;5.91;77.04
19795;BME280;10057;59.402;17.866;2023-04-24T01:07:19;100073.22;;;5.93;76.70
19795;BME280;10057;59.402;17.866;2023-04-24T01:09:48;100074.94;;;5.94;76.33
19795;BME280;10057;59.402;17.866;2023-04-24T01:12:15;100066.94;;;5.99;76.08
19795;BME280;10057;59.402;17.866;2023-04-24T01:14:42;100072.88;;;6.05;76.64
19795;BME280;10057;59.402;17.866;2023-04-24T01:17:09;100081.56;;;6.07;76.24
19795;BME280;10057;59.402;17.866;2023-04-24T01:19:36;100073.91;;;6.00;76.17
19795;BME280;10057;59.402;17.866;2023-04-24T01:22:10;100080.25;;;5.92;75.78
19795;BME280;10057;59.402;17.866;2023-04-24T01:24:37;100084.81;;;5.86;76.00
19795;BME280;10057;59.402;17.866;2023-04-24T01:27:04;100085.75;;;5.83;76.43
19795;BME280;10057;59.402;17.866;2023-04-24T01:29:31;100090.22;;;5.80;76.24
19795;BME280;10057;59.402;17.866;2023-04-24T01:31:58;100090.31;;;5.77;76.62
19795;BME280;10057;59.402;17.866;2023-04-24T01:34:25;100093.88;;;5.76;76.74
19795;BME280;10057;59.402;17.866;2023-04-24T01:36:53;100102.69;;;5.75;77.00
19795;BME280;10057;59.402;17.866;2023-04-24T01:39:19;100097.50;;;5.72;76.98
19795;BME280;10057;59.402;17.866;2023-04-24T01:41:47;100100.13;;;5.72;76.58
19795;BME280;10057;59.402;17.866;2023-04-24T01:44:14;100099.97;;;5.76;76.71
19795;BME280;10057;59.402;17.866;2023-04-24T01:46:41;100094.41;;;5.87;76.48
19795;BME280;10057;59.402;17.866;2023-04-24T01:49:08;100099.28;;;6.02;76.36
19795;BME280;10057;59.402;17.866;2023-04-24T01:51:35;100092.78;;;6.15;76.20
19795;BME280;10057;59.402;17.866;2023-04-24T01:54:02;100096.72;;;6.30;76.03
19795;BME280;10057;59.402;17.866;2023-04-24T01:56:29;100100.78;;;6.40;75.55
19795;BME280;10057;59.402;17.866;2023-04-24T01:58:59;100102.25;;;6.51;75.76
19795;BME280;10057;59.402;17.866;2023-04-24T02:01:27;100102.84;;;6.60;74.93
19795;BME280;10057;59.402;17.866;2023-04-24T02:03:54;100095.63;;;6.65;75.19
19795;BME280;10057;59.402;17.866;2023-04-24T02:06:21;100099.97;;;6.67;74.58
19795;BME280;10057;59.402;17.866;2023-04-24T02:08:48;100098.13;;;6.70;74.35
19795;BME280;10057;59.402;17.866;2023-04-24T02:11:15;100103.34;;;6.72;74.35
19795;BME280;10057;59.402;17.866;2023-04-24T02:13:42;100103.34;;;6.72;74.06
19795;BME280;10057;59.402;17.866;2023-04-24T02:16:08;100114.91;;;6.68;74.04
19795;BME280;10057;59.402;17.866;2023-04-24T02:18:35;100118.56;;;6.63;74.00
19795;BME280;10057;59.402;17.866;2023-04-24T02:21:02;100122.25;;;6.56;73.91
19795;BME280;10057;59.402;17.866;2023-04-24T02:23:29;100115.31;;;6.54;73.76
19795;BME280;10057;59.402;17.866;2023-04-24T02:25:56;100117.09;;;6.53;74.12
19795;BME280;10057;59.402;17.866;2023-04-24T02:28:22;100116.28;;;6.51;73.80
19795;BME280;10057;59.402;17.866;2023-04-24T02:30:50;100112.72;;;6.52;73.88
19795;BME280;10057;59.402;17.866;2023-04-24T02:33:17;100110.06;;;6.54;73.55
19795;BME280;10057;59.402;17.866;2023-04-24T02:35:44;100123.06;;;6.60;73.62
19795;BME280;10057;59.402;17.866;2023-04-24T02:38:11;100122.13;;;6.61;73.41
19795;BME280;10057;59.402;17.866;2023-04-24T02:40:37;100123.06;;;6.60;73.29
19795;BME280;10057;59.402;17.866;2023-04-24T02:43:04;100119.59;;;6.58;73.09
19795;BME280;10057;59.402;17.866;2023-04-24T02:45:31;100119.75;;;6.53;72.76
19795;BME280;10057;59.402;17.866;2023-04-24T02:47:58;100127.75;;;6.49;73.05
19795;BME280;10057;59.402;17.866;2023-04-24T02:50:24;100129.63;;;6.45;73.25
19795;BME280;10057;59.402;17.866;2023-04-24T02:52:51;100133.19;;;6.44;72.74
19795;BME280;10057;59.402;17.866;2023-04-24T02:55:18;100130.69;;;6.39;72.91
19795;BME280;10057;59.402;17.866;2023-04-24T02:57:45;100141.34;;;6.35;72.83
19795;BME280;10057;59.402;17.866;2023-04-24T03:00:12;100137.84;;;6.34;73.08
19795;BME280;10057;59.402;17.866;2023-04-24T03:02:39;100134.38;;;6.34;72.87
19795;BME280;10057;59.402;17.866;2023-04-24T03:05:07;100134.41;;;6.32;72.59
19795;BME280;10057;59.402;17.866;2023-04-24T03:07:33;100132.56;;;6.36;72.16
19795;BME280;10057;59.402;17.866;2023-04-24T03:10:00;100146.53;;;6.38;72.20
19795;BME280;10057;59.402;17.866;2023-04-24T03:12:27;100148.25;;;6.39;72.41
19795;BME280;10057;59.402;17.866;2023-04-24T03:14:53;100149.22;;;6.36;72.03
19795;BME280;10057;59.402;17.866;2023-04-24T03:17:20;100139.66;;;6.32;71.94
19795;BME280;10057;59.402;17.866;2023-04-24T03:19:47;100145.13;;;6.26;72.07
19795;BME280;10057;59.402;17.866;2023-04-24T03:22:14;100154.97;;;6.20;71.80
19795;BME280;10057;59.402;17.866;2023-04-24T03:24:40;100151.59;;;6.14;71.66
19795;BME280;10057;59.402;17.866;2023-04-24T03:27:07;100153.34;;;6.15;71.96
19795;BME280;10057;59.402;17.866;2023-04-24T03:29:34;100156.78;;;6.17;71.67
19795;BME280;10057;59.402;17.866;2023-04-24T03:32:01;100159.38;;;6.19;71.77
19795;BME280;10057;59.402;17.866;2023-04-24T03:34:27;100159.47;;;6.16;71.90
19795;BME280;10057;59.402;17.866;2023-04-24T03:36:54;100157.72;;;6.15;71.65
19795;BME280;10057;59.402;17.866;2023-04-24T03:39:21;100162.13;;;6.14;71.72
19795;BME280;10057;59.402;17.866;2023-04-24T03:41:48;100148.97;;;6.14;71.28
19795;BME280;10057;59.402;17.866;2023-04-24T03:44:15;100153.22;;;6.18;71.39
19795;BME280;10057;59.402;17.866;2023-04-24T03:46:41;100152.34;;;6.20;71.46
19795;BME280;10057;59.402;17.866;2023-04-24T03:49:08;100153.22;;;6.18;71.36
19795;BME280;10057;59.402;17.866;2023-04-24T03:51:35;100156.88;;;6.14;71.46
19795;BME280;10057;59.402;17.866;2023-04-24T03:54:01;100163.75;;;6.18;71.36
19795;BME280;10057;59.402;17.866;2023-04-24T03:56:29;100172.50;;;6.21;71.11
19795;BME280;10057;59.402;17.866;2023-04-24T03:58:56;100164.59;;;6.21;70.89
19795;BME280;10057;59.402;17.866;2023-04-24T04:01:22;100174.97;;;6.27;70.71
19795;BME280;10057;59.402;17.866;2023-04-24T04:03:50;100171.19;;;6.35;70.87
19795;BME280;10057;59.402;17.866;2023-04-24T04:06:17;100175.44;;;6.41;70.62
19795;BME280;10057;59.402;17.866;2023-04-24T04:08:45;100181.53;;;6.43;70.28
19795;BME280;10057;59.402;17.866;2023-04-24T04:11:12;100192.88;;;6.45;70.37
19795;BME280;10057;59.402;17.866;2023-04-24T04:13:39;100202.53;;;6.46;70.13
19795;BME280;10057;59.402;17.866;2023-04-24T04:16:06;100209.50;;;6.47;70.61
19795;BME280;10057;59.402;17.866;2023-04-24T04:18:32;100208.59;;;6.48;69.98
19795;BME280;10057;59.402;17.866;2023-04-24T04:20:59;100210.44;;;6.46;70.54
19795;BME280;10057;59.402;17.866;2023-04-24T04:23:27;100213.84;;;6.50;70.63
19795;BME280;10057;59.402;17.866;2023-04-24T04:25:54;100217.13;;;6.56;70.06
19795;BME280;10057;59.402;17.866;2023-04-24T04:28:21;100223.31;;;6.55;70.14
19795;BME280;10057;59.402;17.866;2023-04-24T04:30:48;100228.66;;;6.54;69.63
19795;BME280;10057;59.402;17.866;2023-04-24T04:33:15;100233.16;;;6.50;70.28
19795;BME280;10057;59.402;17.866;2023-04-24T04:35:42;100234.03;;;6.49;70.24
19795;BME280;10057;59.402;17.866;2023-04-24T04:38:09;100243.69;;;6.50;69.96
19795;BME280;10057;59.402;17.866;2023-04-24T04:40:37;100250.69;;;6.51;70.12
19795;BME280;10057;59.402;17.866;2023-04-24T04:43:04;100258.66;;;6.50;70.14
19795;BME280;10057;59.402;17.866;2023-04-24T04:45:30;100263.03;;;6.49;70.12
19795;BME280;10057;59.402;17.866;2023-04-24T04:47:59;100270.03;;;6.50;69.85
19795;BME280;10057;59.402;17.866;2023-04-24T04:50:27;100270.13;;;6.47;69.97
19795;BME280;10057;59.402;17.866;2023-04-24T04:52:54;100268.28;;;6.49;69.94
19795;BME280;10057;59.402;17.866;2023-04-24T04:55:21;100271.91;;;6.47;70.17
19795;BME280;10057;59.402;17.866;2023-04-24T04:57:48;100285.16;;;6.44;69.90
19795;BME280;10057;59.402;17.866;2023-04-24T05:00:15;100293.00;;;6.45;69.89
19795;BME280;10057;59.402;17.866;2023-04-24T05:02:42;100283.31;;;6.47;69.93
19795;BME280;10057;59.402;17.866;2023-04-24T05:05:09;100289.50;;;6.46;69.50
19795;BME280;10057;59.402;17.866;2023-04-24T05:07:36;100285.09;;;6.45;69.95
19795;BME280;10057;59.402;17.866;2023-04-24T05:10:03;100285.97;;;6.46;69.61
19795;BME280;10057;59.402;17.866;2023-04-24T05:12:30;100286.00;;;6.44;70.05
19795;BME280;10057;59.402;17.866;2023-04-24T05:14:57;100283.41;;;6.43;70.26
19795;BME280;10057;59.402;17.866;2023-04-24T05:17:23;100287.00;;;6.40;70.38
19795;BME280;10057;59.402;17.866;2023-04-24T05:19:50;100281.06;;;6.32;69.86
19795;BME280;10057;59.402;17.866;2023-04-24T05:22:17;100284.63;;;6.31;69.88
19795;BME280;10057;59.402;17.866;2023-04-24T05:24:47;100283.88;;;6.26;70.38
19795;BME280;10057;59.402;17.866;2023-04-24T05:27:14;100282.13;;;6.25;70.55
19795;BME280;10057;59.402;17.866;2023-04-24T05:29:41;100284.78;;;6.25;70.02
19795;BME280;10057;59.402;17.866;2023-04-24T05:32:08;100280.41;;;6.24;70.78
19795;BME280;10057;59.402;17.866;2023-04-24T05:34:35;100281.41;;;6.20;70.43
19795;BME280;10057;59.402;17.866;2023-04-24T05:37:02;100291.94;;;6.20;70.49
19795;BME280;10057;59.402;17.866;2023-04-24T05:39:30;100293.75;;;6.17;70.80
19795;BME280;10057;59.402;17.866;2023-04-24T05:41:56;100301.66;;;6.17;70.58
19795;BME280;10057;59.402;17.866;2023-04-24T05:44:24;100299.09;;;6.14;70.54
19795;BME280;10057;59.402;17.866;2023-04-24T05:46:52;100306.19;;;6.12;70.95
19795;BME280;10057;59.402;17.866;2023-04-24T05:49:18;100300.06;;;6.10;70.38
19795;BME280;10057;59.402;17.866;2023-04-24T05:51:45;100301.84;;;6.10;70.83
19795;BME280;10057;59.402;17.866;2023-04-24T05:54:12;100297.44;;;6.10;71.02
19795;BME280;10057;59.402;17.866;2023-04-24T05:56:39;100299.16;;;6.13;70.72
19795;BME280;10057;59.402;17.866;2023-04-24T05:59:08;100297.41;;;6.12;70.70
19795;BME280;10057;59.402;17.866;2023-04-24T06:01:35;100307.91;;;6.13;70.65
19795;BME280;10057;59.402;17.866;2023-04-24T06:04:05;100307.84;;;6.15;70.87
19795;BME280;10057;59.402;17.866;2023-04-24T06:06:34;100310.56;;;6.12;70.69
19795;BME280;10057;59.402;17.866;2023-04-24T06:09:01;100307.06;;;6.11;71.00
19795;BME280;10057;59.402;17.866;2023-04-24T06:11:29;100305.28;;;6.13;70.91
19795;BME280;10057;59.402;17.866;2023-04-24T06:13:56;100298.22;;;6.14;70.72
19795;BME280;10057;59.402;17.866;2023-04-24T06:16:22;100304.34;;;6.14;70.55
19795;BME280;10057;59.402;17.866;2023-04-24T06:18:49;100306.06;;;6.17;70.98
19795;BME280;10057;59.402;17.866;2023-04-24T06:21:17;100305.97;;;6.20;70.50
19795;BME280;10057;59.402;17.866;2023-04-24T06:23:43;100299.84;;;6.20;71.09
19795;BME280;10057;59.402;17.866;2023-04-24T06:26:12;100309.41;;;6.24;70.63
19795;BME280;10057;59.402;17.866;2023-04-24T06:28:39;100307.59;;;6.26;70.79
19795;BME280;10057;59.402;17.866;2023-04-24T06:31:06;100307.69;;;6.23;70.56
19795;BME280;10057;59.402;17.866;2023-04-24T06:33:32;100305.94;;;6.22;70.46
19795;BME280;10057;59.402;17.866;2023-04-24T06:35:59;100310.22;;;6.26;71.11
19795;BME280;10057;59.402;17.866;2023-04-24T06:38:26;100313.66;;;6.28;71.01
19795;BME280;10057;59.402;17.866;2023-04-24T06:40:53;100315.31;;;6.32;71.13
19795;BME280;10057;59.402;17.866;2023-04-24T06:43:20;100316.06;;;6.37;70.80
19795;BME280;10057;59.402;17.866;2023-04-24T06:45:46;100314.16;;;6.44;70.72
19795;BME280;10057;59.402;17.866;2023-04-24T06:48:13;100320.28;;;6.44;70.77
19795;BME280;10057;59.402;17.866;2023-04-24T06:50:40;100313.44;;;6.37;70.36
19795;BME280;10057;59.402;17.866;2023-04-24T06:53:07;100317.88;;;6.35;70.37
19795;BME280;10057;59.402;17.866;2023-04-24T06:55:35;100327.47;;;6.37;70.61
19795;BME280;10057;59.402;17.866;2023-04-24T06:58:02;100330.94;;;6.39;70.61
19795;BME280;10057;59.402;17.866;2023-04-24T07:00:29;100328.25;;;6.41;70.52
19795;BME280;10057;59.402;17.866;2023-04-24T07:02:56;100341.34;;;6.44;70.24
19795;BME280;10057;59.402;17.866;2023-04-24T07:05:24;100331.81;;;6.40;70.50
19795;BME280;10057;59.402;17.866;2023-04-24T07:07:51;100332.75;;;6.37;70.36
19795;BME280;10057;59.402;17.866;2023-04-24T07:10:17;100336.22;;;6.39;70.56
19795;BME280;10057;59.402;17.866;2023-04-24T07:12:44;100347.63;;;6.40;70.40
19795;BME280;10057;59.402;17.866;2023-04-24T07:15:11;100346.69;;;6.41;70.39
19795;BME280;10057;59.402;17.866;2023-04-24T07:17:38;100346.56;;;6.46;70.90
19795;BME280;10057;59.402;17.866;2023-04-24T07:20:05;100356.16;;;6.48;70.59
19795;BME280;10057;59.402;17.866;2023-04-24T07:22:34;100358.81;;;6.48;70.69
19795;BME280;10057;59.402;17.866;2023-04-24T07:25:01;100364.22;;;6.44;70.70
19795;BME280;10057;59.402;17.866;2023-04-24T07:27:28;100372.97;;;6.44;70.50
19795;BME280;10057;59.402;17.866;2023-04-24T07:29:54;100373.97;;;6.40;70.38
19795;BME280;10057;59.402;17.866;2023-04-24T07:32:21;100385.38;;;6.40;70.88
19795;BME280;10057;59.402;17.866;2023-04-24T07:34:48;100384.34;;;6.46;70.58
19795;BME280;10057;59.402;17.866;2023-04-24T07:37:15;100391.28;;;6.50;70.38
19795;BME280;10057;59.402;17.866;2023-04-24T07:39:42;100393.81;;;6.53;70.73
19795;BME280;10057;59.402;17.866;2023-04-24T07:42:09;100408.81;;;6.51;70.48
19795;BME280;10057;59.402;17.866;2023-04-24T07:44:36;100407.16;;;6.47;70.94
19795;BME280;10057;59.402;17.866;2023-04-24T07:47:02;100412.28;;;6.53;70.39
19795;BME280;10057;59.402;17.866;2023-04-24T07:49:29;100419.28;;;6.54;70.46
19795;BME280;10057;59.402;17.866;2023-04-24T07:51:56;100426.25;;;6.55;70.38
19795;BME280;10057;59.402;17.866;2023-04-24T07:54:23;100428.75;;;6.61;70.69
19795;BME280;10057;59.402;17.866;2023-04-24T07:56:49;100423.41;;;6.63;70.25
19795;BME280;10057;59.402;17.866;2023-04-24T07:59:16;100414.56;;;6.67;70.25
19795;BME280;10057;59.402;17.866;2023-04-24T08:01:43;100426.75;;;6.70;70.46
19795;BME280;10057;59.402;17.866;2023-04-24T08:04:10;100431.94;;;6.74;70.12
19795;BME280;10057;59.402;17.866;2023-04-24T08:06:37;100434.44;;;6.79;69.96
19795;BME280;10057;59.402;17.866;2023-04-24T08:09:03;100422.19;;;6.78;69.59
19795;BME280;10057;59.402;17.866;2023-04-24T08:11:30;100421.31;;;6.77;69.67
19795;BME280;10057;59.402;17.866;2023-04-24T08:13:58;100422.19;;;6.78;69.67
19795;BME280;10057;59.402;17.866;2023-04-24T08:16:25;100418.63;;;6.79;69.74
19795;BME280;10057;59.402;17.866;2023-04-24T08:18:53;100418.53;;;6.82;70.07
19795;BME280;10057;59.402;17.866;2023-04-24T08:21:19;100415.00;;;6.83;69.94
19795;BME280;10057;59.402;17.866;2023-04-24T08:23:47;100408.69;;;6.88;69.35
19795;BME280;10057;59.402;17.866;2023-04-24T08:26:14;100408.63;;;6.92;69.57
19795;BME280;10057;59.402;17.866;2023-04-24T08:28:40;100420.81;;;6.96;69.82
19795;BME280;10057;59.402;17.866;2023-04-24T08:31:07;100427.69;;;7.01;69.98
19795;BME280;10057;59.402;17.866;2023-04-24T08:33:34;100429.34;;;7.04;69.81
19795;BME280;10057;59.402;17.866;2023-04-24T08:36:05;100430.25;;;7.04;69.71
19795;BME280;10057;59.402;17.866;2023-04-24T08:38:33;100428.34;;;7.09;69.86
19795;BME280;10057;59.402;17.866;2023-04-24T08:41:00;100430.84;;;7.14;69.74
19795;BME280;10057;59.402;17.866;2023-04-24T08:43:28;100441.47;;;7.11;69.20
19795;BME280;10057;59.402;17.866;2023-04-24T08:45:56;100443.25;;;7.10;69.68
19795;BME280;10057;59.402;17.866;2023-04-24T08:48:24;100437.97;;;7.10;69.41
19795;BME280;10057;59.402;17.866;2023-04-24T08:50:58;100450.19;;;7.15;69.58
19795;BME280;10057;59.402;17.866;2023-04-24T08:53:26;100453.69;;;7.15;69.51
19795;BME280;10057;59.402;17.866;2023-04-24T08:55:55;100445.88;;;7.12;69.13
19795;BME280;10057;59.402;17.866;2023-04-24T08:58:25;100438.81;;;7.12;69.26
19795;BME280;10057;59.402;17.866;2023-04-24T09:00:56;100445.88;;;7.10;69.61
19795;BME280;10057;59.402;17.866;2023-04-24T09:03:23;100447.59;;;7.13;69.15
19795;BME280;10057;59.402;17.866;2023-04-24T09:05:52;100447.44;;;7.18;69.30
19795;BME280;10057;59.402;17.866;2023-04-24T09:08:19;100443.84;;;7.22;69.30
19795;BME280;10057;59.402;17.866;2023-04-24T09:10:46;100445.41;;;7.27;69.70
19795;BME280;10057;59.402;17.866;2023-04-24T09:13:16;100444.47;;;7.30;69.42
19795;BME280;10057;59.402;17.866;2023-04-24T09:15:44;100442.59;;;7.33;69.58
19795;BME280;10057;59.402;17.866;2023-04-24T09:18:11;100440.81;;;7.35;69.36
19795;BME280;10057;59.402;17.866;2023-04-24T09:20:57;100442.59;;;7.35;69.08
19795;BME280;10057;59.402;17.866;2023-04-24T09:23:26;100437.31;;;7.35;69.49
19795;BME280;10057;59.402;17.866;2023-04-24T09:25:57;100439.03;;;7.36;69.43
19795;BME280;10057;59.402;17.866;2023-04-24T09:28:26;100434.66;;;7.35;69.18
19795;BME280;10057;59.402;17.866;2023-04-24T09:31:12;100443.38;;;7.37;69.43
19795;BME280;10057;59.402;17.866;2023-04-24T09:33:40;100455.66;;;7.38;69.41
19795;BME280;10057;59.402;17.866;2023-04-24T09:36:19;100453.91;;;7.39;69.60
19795;BME280;10057;59.402;17.866;2023-04-24T09:38:46;100455.56;;;7.41;69.34
19795;BME280;10057;59.402;17.866;2023-04-24T09:41:13;100452.94;;;7.41;69.02
19795;BME280;10057;59.402;17.866;2023-04-24T09:43:40;100453.81;;;7.42;68.98
19795;BME280;10057;59.402;17.866;2023-04-24T09:46:07;100452.06;;;7.42;69.09
19795;BME280;10057;59.402;17.866;2023-04-24T09:48:37;100454.78;;;7.39;69.59
19795;BME280;10057;59.402;17.866;2023-04-24T09:51:05;100444.16;;;7.41;69.33
19795;BME280;10057;59.402;17.866;2023-04-24T09:53:38;100444.06;;;7.44;69.38
19795;BME280;10057;59.402;17.866;2023-04-24T09:56:09;100443.03;;;7.49;69.58
19795;BME280;10057;59.402;17.866;2023-04-24T09:58:36;100447.31;;;7.53;69.29
19795;BME280;10057;59.402;17.866;2023-04-24T10:01:03;100442.84;;;7.55;69.04
19795;BME280;10057;59.402;17.866;2023-04-24T10:03:34;100450.72;;;7.57;69.13
19795;BME280;10057;59.402;17.866;2023-04-24T10:06:02;100443.72;;;7.56;69.05
19795;BME280;10057;59.402;17.866;2023-04-24T10:08:36;100439.31;;;7.56;68.65
19795;BME280;10057;59.402;17.866;2023-04-24T10:11:04;100433.13;;;7.57;68.91
19795;BME280;10057;59.402;17.866;2023-04-24T10:13:32;100431.22;;;7.63;68.89
19795;BME280;10057;59.402;17.866;2023-04-24T10:16:00;100432.78;;;7.68;68.95
19795;BME280;10057;59.402;17.866;2023-04-24T10:18:28;100436.03;;;7.78;69.28
19795;BME280;10057;59.402;17.866;2023-04-24T10:20:56;100435.84;;;7.84;68.61
19795;BME280;10057;59.402;17.866;2023-04-24T10:23:25;100444.63;;;7.84;68.34
19795;BME280;10057;59.402;17.866;2023-04-24T10:25:52;100438.47;;;7.84;68.25
19795;BME280;10057;59.402;17.866;2023-04-24T10:28:19;100444.69;;;7.83;68.27
19795;BME280;10057;59.402;17.866;2023-04-24T10:30:47;100441.16;;;7.82;68.32
19795;BME280;10057;59.402;17.866;2023-04-24T10:33:14;100455.34;;;7.80;67.83
19795;BME280;10057;59.402;17.866;2023-04-24T10:35:44;100447.41;;;7.80;68.28
19795;BME280;10057;59.402;17.866;2023-04-24T10:38:14;100457.97;;;7.80;68.62
19795;BME280;10057;59.402;17.866;2023-04-24T10:40:42;100458.84;;;7.80;68.42
19795;BME280;10057;59.402;17.866;2023-04-24T10:43:10;100467.53;;;7.84;68.08
19795;BME280;10057;59.402;17.866;2023-04-24T10:45:38;100463.94;;;7.87;67.67
19795;BME280;10057;59.402;17.866;2023-04-24T10:48:09;100463.88;;;7.88;68.11
19795;BME280;10057;59.402;17.866;2023-04-24T10:50:51;100455.81;;;7.93;68.02
19795;BME280;10057;59.402;17.866;2023-04-24T10:53:19;100471.53;;;7.97;67.78
19795;BME280;10057;59.402;17.866;2023-04-24T10:55:49;100471.44;;;8.00;67.80
19795;BME280;10057;59.402;17.866;2023-04-24T10:58:21;100471.34;;;8.03;67.84
19795;BME280;10057;59.402;17.866;2023-04-24T11:00:59;100465.06;;;8.07;67.66
19795;BME280;10057;59.402;17.866;2023-04-24T11:03:30;100476.41;;;8.10;67.58
19795;BME280;10057;59.402;17.866;2023-04-24T11:06:08;100469.34;;;8.10;67.82
19795;BME280;10057;59.402;17.866;2023-04-24T11:08:44;100472.00;;;8.10;67.81
19795;BME280;10057;59.402;17.866;2023-04-24T11:11:13;100461.50;;;8.08;67.79
19795;BME280;10057;59.402;17.866;2023-04-24T11:19:07;100463.94;;;8.15;67.60
19795;BME280;10057;59.402;17.866;2023-04-24T11:27:11;100458.50;;;8.19;67.38
19795;BME280;10057;59.402;17.866;2023-04-24T11:29:46;100461.03;;;8.24;67.62
19795;BME280;10057;59.402;17.866;2023-04-24T11:35:00;100461.63;;;8.32;67.45
19795;BME280;10057;59.402;17.866;2023-04-24T11:37:34;100464.28;;;8.32;67.69
19795;BME280;10057;59.402;17.866;2023-04-24T11:40:03;100458.06;;;8.33;67.55
19795;BME280;10057;59.402;17.866;2023-04-24T11:42:39;100473.91;;;8.33;67.80
19795;BME280;10057;59.402;17.866;2023-04-24T11:45:17;100474.84;;;8.32;67.52
19795;BME280;10057;59.402;17.866;2023-04-24T11:47:44;100479.13;;;8.38;67.35
19795;BME280;10057;59.402;17.866;2023-04-24T11:50:14;100476.31;;;8.42;67.42
19795;BME280;10057;59.402;17.866;2023-04-24T11:52:43;100478.84;;;8.45;67.15
19795;BME280;10057;59.402;17.866;2023-04-24T11:57:48;100482.56;;;8.40;67.08
19795;BME280;10057;59.402;17.866;2023-04-24T12:00:17;100475.78;;;8.31;66.77
19795;BME280;10057;59.402;17.866;2023-04-24T12:02:45;100479.31;;;8.30;67.36
19795;BME280;10057;59.402;17.866;2023-04-24T12:05:23;100473.16;;;8.29;67.12
19795;BME280;10057;59.402;17.866;2023-04-24T12:07:50;100474.94;;;8.29;66.89
19795;BME280;10057;59.402;17.866;2023-04-24T12:10:24;100478.53;;;8.26;67.43
19795;BME280;10057;59.402;17.866;2023-04-24T12:12:53;100463.66;;;8.24;67.09
19795;BME280;10057;59.402;17.866;2023-04-24T12:15:20;100463.84;;;8.18;66.89
19795;BME280;10057;59.402;17.866;2023-04-24T12:17:48;100464.03;;;8.12;67.31
19795;BME280;10057;59.402;17.866;2023-04-24T12:20:14;100469.31;;;8.12;67.12
19795;BME280;10057;59.402;17.866;2023-04-24T12:22:54;100474.53;;;8.13;67.01
19795;BME280;10057;59.402;17.866;2023-04-24T12:25:23;100477.50;;;8.04;67.16
19795;BME280;10057;59.402;17.866;2023-04-24T12:28:16;100487.41;;;7.96;67.01
19795;BME280;10057;59.402;17.866;2023-04-24T12:30:47;100485.84;;;7.90;67.32
19795;BME280;10057;59.402;17.866;2023-04-24T12:33:19;100489.59;;;7.83;67.30
19795;BME280;10057;59.402;17.866;2023-04-24T12:35:47;100480.91;;;7.78;67.16
19795;BME280;10057;59.402;17.866;2023-04-24T12:38:15;100477.44;;;7.76;67.36
19795;BME280;10057;59.402;17.866;2023-04-24T12:40:43;100479.22;;;7.75;67.71
19795;BME280;10057;59.402;17.866;2023-04-24T12:43:14;100469.53;;;7.76;67.44
19795;BME280;10057;59.402;17.866;2023-04-24T12:45:42;100461.59;;;7.76;67.41
19795;BME280;10057;59.402;17.866;2023-04-24T12:48:09;100458.19;;;7.72;67.65
19795;BME280;10057;59.402;17.866;2023-04-24T12:50:36;100454.69;;;7.72;67.78
19795;BME280;10057;59.402;17.866;2023-04-24T12:53:03;100451.25;;;7.70;67.74
19795;BME280;10057;59.402;17.866;2023-04-24T12:55:29;100438.91;;;7.70;67.96
19795;BME280;10057;59.402;17.866;2023-04-24T12:57:56;100451.94;;;7.75;67.86
19795;BME280;10057;59.402;17.866;2023-04-24T13:00:24;100448.31;;;7.79;68.18
19795;BME280;10057;59.402;17.866;2023-04-24T13:02:51;100447.31;;;7.83;67.71
19795;BME280;10057;59.402;17.866;2023-04-24T13:05:18;100444.69;;;7.83;67.50
19795;BME280;10057;59.402;17.866;2023-04-24T13:07:45;100448.97;;;7.86;67.62
19795;BME280;10057;59.402;17.866;2023-04-24T13:10:12;100453.50;;;7.82;67.52